sensor_id;sensor_type;location;lat;lon;timestamp;temperature;humidity
4399;DHT22;2213;49.720;7.296;2023-12-04T00:02:03;-2.40;99.90
4399;DHT22;2213;49.720;7.296;2023-12-04T00:04:33;-2.60;99.90
4399;DHT22;2213;49.720;7.296;2023-12-04T00:07:02;-2.70;99.90
4399;DHT22;2213;49.720;7.296;2023-12-04T00:09:30;-2.80;99.90
4399;DHT22;2213;49.720;7.296;2023-12-04T00:11:59;-2.80;99.90
4399;DHT22;2213;49.720;7.296;2023-12-04T00:14:28;-2.80;99.90
4399;DHT22;2213;49.720;7.296;2023-12-04T00:16:56;-2.70;99.90
4399;DHT22;2213;49.720;7.296;2023-12-04T00:19:24;-2.80;99.90
4399;DHT22;2213;49.720;7.296;2023-12-04T00:21:54;-2.80;99.90
4399;DHT22;2213;49.720;7.296;2023-12-04T00:24:23;-2.70;99.90
4399;DHT22;2213;49.720;7.296;2023-12-04T00:26:51;-2.80;99.90
4399;DHT22;2213;49.720;7.296;2023-12-04T00:29:20;-2.80;99.90
4399;DHT22;2213;49.720;7.296;2023-12-04T00:31:48;-2.70;99.90
4399;DHT22;2213;49.720;7.296;2023-12-04T00:34:16;-2.60;99.90
4399;DHT22;2213;49.720;7.296;2023-12-04T00:36:45;-2.70;99.90
4399;DHT22;2213;49.720;7.296;2023-12-04T00:39:15;-2.80;99.90
4399;DHT22;2213;49.720;7.296;2023-12-04T00:41:44;-2.80;99.90
4399;DHT22;2213;49.720;7.296;2023-12-04T00:44:12;-2.90;99.90
4399;DHT22;2213;49.720;7.296;2023-12-04T00:46:41;-2.90;99.90
4399;DHT22;2213;49.720;7.296;2023-12-04T00:49:09;-2.90;99.90
4399;DHT22;2213;49.720;7.296;2023-12-04T00:51:38;-2.90;99.90
4399;DHT22;2213;49.720;7.296;2023-12-04T00:54:07;-3.00;99.90
4399;DHT22;2213;49.720;7.296;2023-12-04T00:56:38;-2.90;99.90
4399;DHT22;2213;49.720;7.296;2023-12-04T00:59:08;-3.00;99.90
4399;DHT22;2213;49.720;7.296;2023-12-04T01:01:37;-2.90;99.90
4399;DHT22;2213;49.720;7.296;2023-12-04T01:04:06;-2.90;99.90
4399;DHT22;2213;49.720;7.296;2023-12-04T01:06:35;-3.00;99.90
4399;DHT22;2213;49.720;7.296;2023-12-04T01:09:03;-3.00;99.90
4399;DHT22;2213;49.720;7.296;2023-12-04T01:11:32;-3.00;99.90
4399;DHT22;2213;49.720;7.296;2023-12-04T01:14:02;-3.10;99.90
4399;DHT22;2213;49.720;7.296;2023-12-04T01:16:30;-3.20;99.90
4399;DHT22;2213;49.720;7.296;2023-12-04T01:18:59;-3.20;99.90
4399;DHT22;2213;49.720;7.296;2023-12-04T01:21:27;-3.20;99.90
4399;DHT22;2213;49.720;7.296;2023-12-04T01:23:57;-3.20;99.90
4399;DHT22;2213;49.720;7.296;2023-12-04T01:26:26;-3.10;99.90
4399;DHT22;2213;49.720;7.296;2023-12-04T01:28:54;-3.30;99.90
4399;DHT22;2213;49.720;7.296;2023-12-04T01:31:24;-3.30;99.90
4399;DHT22;2213;49.720;7.296;2023-12-04T01:33:53;-3.30;99.90
4399;DHT22;2213;49.720;7.296;2023-12-04T01:36:21;-3.30;99.90
4399;DHT22;2213;49.720;7.296;2023-12-04T01:38:51;-3.30;99.90
4399;DHT22;2213;49.720;7.296;2023-12-04T01:41:19;-3.40;99.90
4399;DHT22;2213;49.720;7.296;2023-12-04T01:43:47;-3.40;99.90
4399;DHT22;2213;49.720;7.296;2023-12-04T01:46:17;-3.40;99.90
4399;DHT22;2213;49.720;7.296;2023-12-04T01:48:47;-3.40;99.90
4399;DHT22;2213;49.720;7.296;2023-12-04T01:51:17;-3.50;99.90
4399;DHT22;2213;49.720;7.296;2023-12-04T01:53:47;-3.40;99.90
4399;DHT22;2213;49.720;7.296;2023-12-04T01:56:17;-3.50;99.90
4399;DHT22;2213;49.720;7.296;2023-12-04T01:58:46;-3.50;99.90
4399;DHT22;2213;49.720;7.296;2023-12-04T02:01:14;-3.60;99.90
4399;DHT22;2213;49.720;7.296;2023-12-04T02:03:43;-3.60;99.90
4399;DHT22;2213;49.720;7.296;2023-12-04T02:06:13;-3.60;99.90
4399;DHT22;2213;49.720;7.296;2023-12-04T02:08:43;-3.50;99.90
4399;DHT22;2213;49.720;7.296;2023-12-04T02:11:12;-3.50;99.90
4399;DHT22;2213;49.720;7.296;2023-12-04T02:13:41;-3.70;99.90
4399;DHT22;2213;49.720;7.296;2023-12-04T02:16:10;-3.50;99.90
4399;DHT22;2213;49.720;7.296;2023-12-04T02:18:43;-3.60;99.90
4399;DHT22;2213;49.720;7.296;2023-12-04T02:21:13;-3.60;99.90
4399;DHT22;2213;49.720;7.296;2023-12-04T02:23:41;-3.70;99.90
4399;DHT22;2213;49.720;7.296;2023-12-04T02:26:15;-3.60;99.90
4399;DHT22;2213;49.720;7.296;2023-12-04T02:28:52;-3.60;99.90
4399;DHT22;2213;49.720;7.296;2023-12-04T02:31:27;-3.80;99.90
4399;DHT22;2213;49.720;7.296;2023-12-04T02:33:59;-3.80;99.90
4399;DHT22;2213;49.720;7.296;2023-12-04T02:36:34;-3.70;99.90
4399;DHT22;2213;49.720;7.296;2023-12-04T02:39:04;-3.70;99.90
4399;DHT22;2213;49.720;7.296;2023-12-04T02:41:34;-3.70;99.90
4399;DHT22;2213;49.720;7.296;2023-12-04T02:44:04;-3.60;99.90
4399;DHT22;2213;49.720;7.296;2023-12-04T02:46:32;-3.70;99.90
4399;DHT22;2213;49.720;7.296;2023-12-04T02:49:01;-3.70;99.90
4399;DHT22;2213;49.720;7.296;2023-12-04T02:51:29;-3.60;99.90
4399;DHT22;2213;49.720;7.296;2023-12-04T02:53:58;-3.70;99.90
4399;DHT22;2213;49.720;7.296;2023-12-04T02:56:26;-3.80;99.90
4399;DHT22;2213;49.720;7.296;2023-12-04T02:58:57;-3.80;99.90
4399;DHT22;2213;49.720;7.296;2023-12-04T03:01:27;-3.70;99.90
4399;DHT22;2213;49.720;7.296;2023-12-04T03:03:56;-3.70;99.90
4399;DHT22;2213;49.720;7.296;2023-12-04T03:06:24;-3.80;99.90
4399;DHT22;2213;49.720;7.296;2023-12-04T03:08:53;-3.80;99.90
4399;DHT22;2213;49.720;7.296;2023-12-04T03:11:21;-3.80;99.90
4399;DHT22;2213;49.720;7.296;2023-12-04T03:13:49;-3.90;99.90
4399;DHT22;2213;49.720;7.296;2023-12-04T03:16:19;-3.80;99.90
4399;DHT22;2213;49.720;7.296;2023-12-04T03:18:48;-3.80;99.90
4399;DHT22;2213;49.720;7.296;2023-12-04T03:21:16;-3.80;99.90
4399;DHT22;2213;49.720;7.296;2023-12-04T03:23:45;-3.80;99.90
4399;DHT22;2213;49.720;7.296;2023-12-04T03:26:13;-3.80;99.90
4399;DHT22;2213;49.720;7.296;2023-12-04T03:28:42;-3.80;99.90
4399;DHT22;2213;49.720;7.296;2023-12-04T03:31:10;-3.80;99.90
4399;DHT22;2213;49.720;7.296;2023-12-04T03:33:40;-3.80;99.90
4399;DHT22;2213;49.720;7.296;2023-12-04T03:36:09;-3.80;99.90
4399;DHT22;2213;49.720;7.296;2023-12-04T03:38:38;-3.70;99.90
4399;DHT22;2213;49.720;7.296;2023-12-04T03:41:13;-3.70;99.90
4399;DHT22;2213;49.720;7.296;2023-12-04T03:43:43;-3.80;99.90
4399;DHT22;2213;49.720;7.296;2023-12-04T03:46:11;-3.80;99.90
4399;DHT22;2213;49.720;7.296;2023-12-04T03:48:41;-3.90;99.90
4399;DHT22;2213;49.720;7.296;2023-12-04T03:51:10;-3.80;99.90
4399;DHT22;2213;49.720;7.296;2023-12-04T03:53:38;-3.90;99.90
4399;DHT22;2213;49.720;7.296;2023-12-04T03:56:08;-3.90;99.90
4399;DHT22;2213;49.720;7.296;2023-12-04T03:58:38;-3.90;99.90
4399;DHT22;2213;49.720;7.296;2023-12-04T04:01:07;-3.70;99.90
4399;DHT22;2213;49.720;7.296;2023-12-04T04:03:35;-3.90;99.90
4399;DHT22;2213;49.720;7.296;2023-12-04T04:06:06;-3.80;99.90
4399;DHT22;2213;49.720;7.296;2023-12-04T04:08:34;-3.70;99.90
4399;DHT22;2213;49.720;7.296;2023-12-04T04:11:03;-3.70;99.90
4399;DHT22;2213;49.720;7.296;2023-12-04T04:13:32;-3.80;99.90
4399;DHT22;2213;49.720;7.296;2023-12-04T04:16:00;-3.80;99.90
4399;DHT22;2213;49.720;7.296;2023-12-04T04:18:29;-3.70;99.90
4399;DHT22;2213;49.720;7.296;2023-12-04T04:20:57;-3.70;99.90
4399;DHT22;2213;49.720;7.296;2023-12-04T04:23:27;-3.70;99.90
4399;DHT22;2213;49.720;7.296;2023-12-04T04:25:56;-3.70;99.90
4399;DHT22;2213;49.720;7.296;2023-12-04T04:28:24;-3.70;99.90
4399;DHT22;2213;49.720;7.296;2023-12-04T04:30:53;-3.60;99.90
4399;DHT22;2213;49.720;7.296;2023-12-04T04:33:21;-3.70;99.90
4399;DHT22;2213;49.720;7.296;2023-12-04T04:35:50;-3.70;99.90
4399;DHT22;2213;49.720;7.296;2023-12-04T04:38:18;-3.70;99.90
4399;DHT22;2213;49.720;7.296;2023-12-04T04:40:48;-3.70;99.90
4399;DHT22;2213;49.720;7.296;2023-12-04T04:43:16;-3.70;99.90
4399;DHT22;2213;49.720;7.296;2023-12-04T04:45:45;-3.60;99.90
4399;DHT22;2213;49.720;7.296;2023-12-04T04:48:13;-3.70;99.90
4399;DHT22;2213;49.720;7.296;2023-12-04T04:50:41;-3.60;99.90
4399;DHT22;2213;49.720;7.296;2023-12-04T04:53:10;-3.60;99.90
4399;DHT22;2213;49.720;7.296;2023-12-04T04:55:38;-3.60;99.90
4399;DHT22;2213;49.720;7.296;2023-12-04T04:58:16;-3.50;99.90
4399;DHT22;2213;49.720;7.296;2023-12-04T05:00:46;-3.60;99.90
4399;DHT22;2213;49.720;7.296;2023-12-04T05:03:15;-3.50;99.90
4399;DHT22;2213;49.720;7.296;2023-12-04T05:05:43;-3.50;99.90
4399;DHT22;2213;49.720;7.296;2023-12-04T05:08:12;-3.30;99.90
4399;DHT22;2213;49.720;7.296;2023-12-04T05:10:40;-3.40;99.90
4399;DHT22;2213;49.720;7.296;2023-12-04T05:13:09;-3.40;99.90
4399;DHT22;2213;49.720;7.296;2023-12-04T05:15:39;-3.40;99.90
4399;DHT22;2213;49.720;7.296;2023-12-04T05:18:07;-3.30;99.90
4399;DHT22;2213;49.720;7.296;2023-12-04T05:20:35;-3.30;99.90
4399;DHT22;2213;49.720;7.296;2023-12-04T05:23:04;-3.40;99.90
4399;DHT22;2213;49.720;7.296;2023-12-04T05:25:32;-3.30;99.90
4399;DHT22;2213;49.720;7.296;2023-12-04T05:28:10;-3.40;99.90
4399;DHT22;2213;49.720;7.296;2023-12-04T05:30:40;-3.50;99.90
4399;DHT22;2213;49.720;7.296;2023-12-04T05:33:09;-3.50;99.90
4399;DHT22;2213;49.720;7.296;2023-12-04T05:35:38;-3.40;99.90
4399;DHT22;2213;49.720;7.296;2023-12-04T05:38:06;-3.40;99.90
4399;DHT22;2213;49.720;7.296;2023-12-04T05:40:35;-3.30;99.90
4399;DHT22;2213;49.720;7.296;2023-12-04T05:43:04;-3.30;99.90
4399;DHT22;2213;49.720;7.296;2023-12-04T05:45:32;-3.30;99.90
4399;DHT22;2213;49.720;7.296;2023-12-04T05:48:02;-3.30;99.90
4399;DHT22;2213;49.720;7.296;2023-12-04T05:50:31;-3.40;99.90
4399;DHT22;2213;49.720;7.296;2023-12-04T05:53:00;-3.30;99.90
4399;DHT22;2213;49.720;7.296;2023-12-04T05:55:28;-3.20;99.90
4399;DHT22;2213;49.720;7.296;2023-12-04T05:57:56;-3.20;99.90
4399;DHT22;2213;49.720;7.296;2023-12-04T06:00:25;-3.20;99.90
4399;DHT22;2213;49.720;7.296;2023-12-04T06:02:55;-3.10;99.90
4399;DHT22;2213;49.720;7.296;2023-12-04T06:05:25;-3.00;99.90
4399;DHT22;2213;49.720;7.296;2023-12-04T06:07:54;-3.00;99.90
4399;DHT22;2213;49.720;7.296;2023-12-04T06:10:24;-3.00;99.90
4399;DHT22;2213;49.720;7.296;2023-12-04T06:12:53;-3.00;99.90
4399;DHT22;2213;49.720;7.296;2023-12-04T06:15:21;-3.00;99.90
4399;DHT22;2213;49.720;7.296;2023-12-04T06:17:50;-2.90;99.90
4399;DHT22;2213;49.720;7.296;2023-12-04T06:20:18;-2.90;99.90
4399;DHT22;2213;49.720;7.296;2023-12-04T06:22:48;-2.90;99.90
4399;DHT22;2213;49.720;7.296;2023-12-04T06:25:18;-2.80;99.90
4399;DHT22;2213;49.720;7.296;2023-12-04T06:27:47;-2.90;99.90
4399;DHT22;2213;49.720;7.296;2023-12-04T06:30:17;-2.90;99.90
4399;DHT22;2213;49.720;7.296;2023-12-04T06:32:47;-2.90;99.90
4399;DHT22;2213;49.720;7.296;2023-12-04T06:35:16;-2.90;99.90
4399;DHT22;2213;49.720;7.296;2023-12-04T06:37:48;-2.90;99.90
4399;DHT22;2213;49.720;7.296;2023-12-04T06:40:21;-2.80;99.90
4399;DHT22;2213;49.720;7.296;2023-12-04T06:42:51;-2.80;99.90
4399;DHT22;2213;49.720;7.296;2023-12-04T06:45:20;-2.80;99.90
4399;DHT22;2213;49.720;7.296;2023-12-04T06:47:50;-2.80;99.90
4399;DHT22;2213;49.720;7.296;2023-12-04T06:50:20;-2.70;99.90
4399;DHT22;2213;49.720;7.296;2023-12-04T06:52:50;-2.70;99.90
4399;DHT22;2213;49.720;7.296;2023-12-04T06:55:18;-2.60;99.90
4399;DHT22;2213;49.720;7.296;2023-12-04T06:57:47;-2.80;99.90
4399;DHT22;2213;49.720;7.296;2023-12-04T07:00:16;-2.70;99.90
4399;DHT22;2213;49.720;7.296;2023-12-04T07:02:48;-2.70;99.90
4399;DHT22;2213;49.720;7.296;2023-12-04T07:05:19;-2.70;99.90
4399;DHT22;2213;49.720;7.296;2023-12-04T07:07:49;-2.70;99.90
4399;DHT22;2213;49.720;7.296;2023-12-04T07:10:18;-2.80;99.90
4399;DHT22;2213;49.720;7.296;2023-12-04T07:12:47;-2.90;99.90
4399;DHT22;2213;49.720;7.296;2023-12-04T07:15:15;-2.80;99.90
4399;DHT22;2213;49.720;7.296;2023-12-04T07:17:44;-2.80;99.90
4399;DHT22;2213;49.720;7.296;2023-12-04T07:20:12;-2.80;99.90
4399;DHT22;2213;49.720;7.296;2023-12-04T07:22:41;-2.70;99.90
4399;DHT22;2213;49.720;7.296;2023-12-04T07:25:11;-2.80;99.90
4399;DHT22;2213;49.720;7.296;2023-12-04T07:27:40;-2.70;99.90
4399;DHT22;2213;49.720;7.296;2023-12-04T07:30:09;-2.70;99.90
4399;DHT22;2213;49.720;7.296;2023-12-04T07:32:38;-2.70;99.90
4399;DHT22;2213;49.720;7.296;2023-12-04T07:35:07;-2.60;99.90
4399;DHT22;2213;49.720;7.296;2023-12-04T07:37:36;-2.60;99.90
4399;DHT22;2213;49.720;7.296;2023-12-04T07:40:06;-2.60;99.90
4399;DHT22;2213;49.720;7.296;2023-12-04T07:42:39;-2.60;99.90
4399;DHT22;2213;49.720;7.296;2023-12-04T07:45:08;-2.50;99.90
4399;DHT22;2213;49.720;7.296;2023-12-04T07:47:37;-2.50;99.90
4399;DHT22;2213;49.720;7.296;2023-12-04T07:50:07;-2.50;99.90
4399;DHT22;2213;49.720;7.296;2023-12-04T07:52:36;-2.50;99.90
4399;DHT22;2213;49.720;7.296;2023-12-04T07:55:05;-2.50;99.90
4399;DHT22;2213;49.720;7.296;2023-12-04T07:57:34;-2.50;99.90
4399;DHT22;2213;49.720;7.296;2023-12-04T08:00:05;-2.40;99.90
4399;DHT22;2213;49.720;7.296;2023-12-04T08:02:34;-2.50;99.90
4399;DHT22;2213;49.720;7.296;2023-12-04T08:05:03;-2.40;99.90
4399;DHT22;2213;49.720;7.296;2023-12-04T08:07:34;-2.50;99.90
4399;DHT22;2213;49.720;7.296;2023-12-04T08:10:03;-2.50;99.90
4399;DHT22;2213;49.720;7.296;2023-12-04T08:12:33;-2.40;99.90
4399;DHT22;2213;49.720;7.296;2023-12-04T08:15:04;-2.40;99.90
4399;DHT22;2213;49.720;7.296;2023-12-04T08:17:33;-2.50;99.90
4399;DHT22;2213;49.720;7.296;2023-12-04T08:20:02;-2.40;99.90
4399;DHT22;2213;49.720;7.296;2023-12-04T08:22:32;-2.40;99.90
4399;DHT22;2213;49.720;7.296;2023-12-04T08:25:00;-2.40;99.90
4399;DHT22;2213;49.720;7.296;2023-12-04T08:27:29;-2.50;99.90
4399;DHT22;2213;49.720;7.296;2023-12-04T08:29:59;-2.50;99.90
4399;DHT22;2213;49.720;7.296;2023-12-04T08:32:30;-2.40;99.90
4399;DHT22;2213;49.720;7.296;2023-12-04T08:34:58;-2.20;99.90
4399;DHT22;2213;49.720;7.296;2023-12-04T08:37:27;-2.30;99.90
4399;DHT22;2213;49.720;7.296;2023-12-04T08:39:56;-2.30;99.90
4399;DHT22;2213;49.720;7.296;2023-12-04T08:42:24;-2.30;99.90
4399;DHT22;2213;49.720;7.296;2023-12-04T08:44:53;-2.20;99.90
4399;DHT22;2213;49.720;7.296;2023-12-04T08:47:21;-2.20;99.90
4399;DHT22;2213;49.720;7.296;2023-12-04T08:49:51;-2.20;99.90
4399;DHT22;2213;49.720;7.296;2023-12-04T08:52:19;-2.30;99.90
4399;DHT22;2213;49.720;7.296;2023-12-04T08:54:48;-2.30;99.90
4399;DHT22;2213;49.720;7.296;2023-12-04T08:57:17;-2.30;99.90
4399;DHT22;2213;49.720;7.296;2023-12-04T08:59:45;-2.20;99.90
4399;DHT22;2213;49.720;7.296;2023-12-04T09:02:14;-2.10;99.90
4399;DHT22;2213;49.720;7.296;2023-12-04T09:04:43;-2.10;99.90
4399;DHT22;2213;49.720;7.296;2023-12-04T09:07:13;-2.10;99.90
4399;DHT22;2213;49.720;7.296;2023-12-04T09:09:44;-2.10;99.90
4399;DHT22;2213;49.720;7.296;2023-12-04T09:12:13;-2.20;99.90
4399;DHT22;2213;49.720;7.296;2023-12-04T09:14:42;-2.10;99.90
4399;DHT22;2213;49.720;7.296;2023-12-04T09:17:11;-2.10;99.90
4399;DHT22;2213;49.720;7.296;2023-12-04T09:19:39;-2.10;99.90
4399;DHT22;2213;49.720;7.296;2023-12-04T09:22:08;-2.10;99.90
4399;DHT22;2213;49.720;7.296;2023-12-04T09:24:46;-2.00;99.90
4399;DHT22;2213;49.720;7.296;2023-12-04T09:27:15;-2.00;99.90
4399;DHT22;2213;49.720;7.296;2023-12-04T09:29:44;-2.00;99.90
4399;DHT22;2213;49.720;7.296;2023-12-04T09:32:12;-1.90;99.90
4399;DHT22;2213;49.720;7.296;2023-12-04T09:34:41;-1.90;99.90
4399;DHT22;2213;49.720;7.296;2023-12-04T09:37:09;-2.00;99.90
4399;DHT22;2213;49.720;7.296;2023-12-04T09:39:39;-1.90;99.90
4399;DHT22;2213;49.720;7.296;2023-12-04T09:42:09;-2.00;99.90
4399;DHT22;2213;49.720;7.296;2023-12-04T09:44:39;-1.90;99.90
4399;DHT22;2213;49.720;7.296;2023-12-04T09:47:09;-1.90;99.90
4399;DHT22;2213;49.720;7.296;2023-12-04T09:49:38;-1.90;99.90
4399;DHT22;2213;49.720;7.296;2023-12-04T09:52:07;-1.90;99.90
4399;DHT22;2213;49.720;7.296;2023-12-04T09:54:36;-1.80;99.90
4399;DHT22;2213;49.720;7.296;2023-12-04T09:57:06;-1.90;99.90
4399;DHT22;2213;49.720;7.296;2023-12-04T09:59:36;-1.80;99.90
4399;DHT22;2213;49.720;7.296;2023-12-04T10:02:05;-1.70;99.90
4399;DHT22;2213;49.720;7.296;2023-12-04T10:04:34;-1.70;99.90
4399;DHT22;2213;49.720;7.296;2023-12-04T10:07:03;-1.70;99.90
4399;DHT22;2213;49.720;7.296;2023-12-04T10:09:32;-1.50;99.90
4399;DHT22;2213;49.720;7.296;2023-12-04T10:12:01;-1.50;99.90
4399;DHT22;2213;49.720;7.296;2023-12-04T10:14:30;-1.70;99.90
4399;DHT22;2213;49.720;7.296;2023-12-04T10:17:13;-1.70;99.90
4399;DHT22;2213;49.720;7.296;2023-12-04T10:19:45;-1.70;99.90
4399;DHT22;2213;49.720;7.296;2023-12-04T10:22:13;-1.70;99.90
4399;DHT22;2213;49.720;7.296;2023-12-04T10:24:42;-1.50;99.90
4399;DHT22;2213;49.720;7.296;2023-12-04T10:27:10;-1.40;99.90
4399;DHT22;2213;49.720;7.296;2023-12-04T10:29:41;-1.20;99.90
4399;DHT22;2213;49.720;7.296;2023-12-04T10:32:13;-1.30;99.90
4399;DHT22;2213;49.720;7.296;2023-12-04T10:34:42;-1.20;99.90
4399;DHT22;2213;49.720;7.296;2023-12-04T10:37:10;-1.20;99.90
4399;DHT22;2213;49.720;7.296;2023-12-04T10:39:46;-1.20;99.90
4399;DHT22;2213;49.720;7.296;2023-12-04T10:42:26;-1.20;99.90
4399;DHT22;2213;49.720;7.296;2023-12-04T10:44:55;-1.20;99.90
4399;DHT22;2213;49.720;7.296;2023-12-04T10:47:27;-1.20;99.90
4399;DHT22;2213;49.720;7.296;2023-12-04T10:49:57;-1.40;99.90
4399;DHT22;2213;49.720;7.296;2023-12-04T10:52:27;-1.40;99.90
4399;DHT22;2213;49.720;7.296;2023-12-04T10:54:57;-1.40;99.90
4399;DHT22;2213;49.720;7.296;2023-12-04T10:57:33;-1.30;99.90
4399;DHT22;2213;49.720;7.296;2023-12-04T11:00:06;-1.40;99.90
4399;DHT22;2213;49.720;7.296;2023-12-04T11:02:46;-1.50;99.90
4399;DHT22;2213;49.720;7.296;2023-12-04T11:05:16;-1.60;99.90
4399;DHT22;2213;49.720;7.296;2023-12-04T11:07:52;-1.50;99.90
4399;DHT22;2213;49.720;7.296;2023-12-04T11:10:46;-1.40;99.90
4399;DHT22;2213;49.720;7.296;2023-12-04T11:13:23;-1.50;99.90
4399;DHT22;2213;49.720;7.296;2023-12-04T11:15:59;-1.40;99.90
4399;DHT22;2213;49.720;7.296;2023-12-04T11:18:36;-1.30;99.90
4399;DHT22;2213;49.720;7.296;2023-12-04T11:21:08;-1.30;99.90
4399;DHT22;2213;49.720;7.296;2023-12-04T11:23:40;-1.40;99.90
4399;DHT22;2213;49.720;7.296;2023-12-04T11:26:10;-1.50;99.90
4399;DHT22;2213;49.720;7.296;2023-12-04T11:28:40;-1.60;99.90
4399;DHT22;2213;49.720;7.296;2023-12-04T11:31:10;-1.50;99.90
4399;DHT22;2213;49.720;7.296;2023-12-04T11:33:40;-1.50;99.90
4399;DHT22;2213;49.720;7.296;2023-12-04T11:36:10;-1.60;99.90
4399;DHT22;2213;49.720;7.296;2023-12-04T11:38:44;-1.50;99.90
4399;DHT22;2213;49.720;7.296;2023-12-04T11:41:15;-1.60;99.90
4399;DHT22;2213;49.720;7.296;2023-12-04T11:43:51;-1.50;99.90
4399;DHT22;2213;49.720;7.296;2023-12-04T11:46:21;-1.60;99.90
4399;DHT22;2213;49.720;7.296;2023-12-04T11:48:56;-1.50;99.90
4399;DHT22;2213;49.720;7.296;2023-12-04T11:51:45;-1.40;99.90
4399;DHT22;2213;49.720;7.296;2023-12-04T11:54:21;-1.40;99.90
4399;DHT22;2213;49.720;7.296;2023-12-04T11:57:19;-1.40;99.90
4399;DHT22;2213;49.720;7.296;2023-12-04T11:59:51;-1.40;99.90
4399;DHT22;2213;49.720;7.296;2023-12-04T12:02:20;-1.30;99.90
4399;DHT22;2213;49.720;7.296;2023-12-04T12:04:50;-1.20;99.90
4399;DHT22;2213;49.720;7.296;2023-12-04T12:07:20;-1.20;99.90
4399;DHT22;2213;49.720;7.296;2023-12-04T12:09:49;-1.20;99.90
4399;DHT22;2213;49.720;7.296;2023-12-04T12:12:17;-1.10;99.90
4399;DHT22;2213;49.720;7.296;2023-12-04T12:14:46;-1.10;99.90
4399;DHT22;2213;49.720;7.296;2023-12-04T12:17:15;-1.10;99.90
4399;DHT22;2213;49.720;7.296;2023-12-04T12:19:43;-1.20;99.90
4399;DHT22;2213;49.720;7.296;2023-12-04T12:22:14;-1.30;99.90
4399;DHT22;2213;49.720;7.296;2023-12-04T12:24:43;-1.30;99.90
4399;DHT22;2213;49.720;7.296;2023-12-04T12:27:12;-1.10;99.90
4399;DHT22;2213;49.720;7.296;2023-12-04T12:29:40;-1.20;99.90
4399;DHT22;2213;49.720;7.296;2023-12-04T12:32:09;-1.20;99.90
4399;DHT22;2213;49.720;7.296;2023-12-04T12:34:38;-1.10;99.90
4399;DHT22;2213;49.720;7.296;2023-12-04T12:37:07;-1.10;99.90
4399;DHT22;2213;49.720;7.296;2023-12-04T12:39:38;-1.10;99.90
4399;DHT22;2213;49.720;7.296;2023-12-04T12:42:08;-1.10;99.90
4399;DHT22;2213;49.720;7.296;2023-12-04T12:44:38;-1.10;99.90
4399;DHT22;2213;49.720;7.296;2023-12-04T12:47:07;-1.10;99.90
4399;DHT22;2213;49.720;7.296;2023-12-04T12:49:36;-1.10;99.90
4399;DHT22;2213;49.720;7.296;2023-12-04T12:52:09;-1.00;99.90
4399;DHT22;2213;49.720;7.296;2023-12-04T12:54:41;-1.10;99.90
4399;DHT22;2213;49.720;7.296;2023-12-04T12:57:11;-1.20;99.90
4399;DHT22;2213;49.720;7.296;2023-12-04T12:59:40;-1.30;99.90
4399;DHT22;2213;49.720;7.296;2023-12-04T13:02:09;-1.20;99.90
4399;DHT22;2213;49.720;7.296;2023-12-04T13:04:43;-1.20;99.90
4399;DHT22;2213;49.720;7.296;2023-12-04T13:07:12;-1.20;99.90
4399;DHT22;2213;49.720;7.296;2023-12-04T13:09:42;-1.20;99.90
4399;DHT22;2213;49.720;7.296;2023-12-04T13:12:10;-1.20;99.90
4399;DHT22;2213;49.720;7.296;2023-12-04T13:14:39;-1.30;99.90
4399;DHT22;2213;49.720;7.296;2023-12-04T13:17:07;-1.20;99.90
4399;DHT22;2213;49.720;7.296;2023-12-04T13:19:36;-1.30;99.90
4399;DHT22;2213;49.720;7.296;2023-12-04T13:22:05;-1.30;99.90
4399;DHT22;2213;49.720;7.296;2023-12-04T13:24:34;-1.30;99.90
4399;DHT22;2213;49.720;7.296;2023-12-04T13:27:04;-1.30;99.90
4399;DHT22;2213;49.720;7.296;2023-12-04T13:29:32;-1.30;99.90
4399;DHT22;2213;49.720;7.296;2023-12-04T13:32:01;-1.30;99.90
4399;DHT22;2213;49.720;7.296;2023-12-04T13:34:29;-1.20;99.90
4399;DHT22;2213;49.720;7.296;2023-12-04T13:36:58;-1.20;99.90
4399;DHT22;2213;49.720;7.296;2023-12-04T13:39:27;-1.10;99.90
4399;DHT22;2213;49.720;7.296;2023-12-04T13:42:15;-1.00;99.90
4399;DHT22;2213;49.720;7.296;2023-12-04T13:45:02;-1.10;99.90
4399;DHT22;2213;49.720;7.296;2023-12-04T13:47:36;-1.10;99.90
4399;DHT22;2213;49.720;7.296;2023-12-04T13:50:06;-1.10;99.90
4399;DHT22;2213;49.720;7.296;2023-12-04T13:52:36;-1.20;99.90
4399;DHT22;2213;49.720;7.296;2023-12-04T13:55:06;-1.20;99.90
4399;DHT22;2213;49.720;7.296;2023-12-04T13:57:46;-1.20;99.90
4399;DHT22;2213;49.720;7.296;2023-12-04T14:00:37;-1.10;99.90
4399;DHT22;2213;49.720;7.296;2023-12-04T14:03:10;-1.00;99.90
4399;DHT22;2213;49.720;7.296;2023-12-04T14:05:39;-0.90;99.90
4399;DHT22;2213;49.720;7.296;2023-12-04T14:08:09;-1.00;99.90
4399;DHT22;2213;49.720;7.296;2023-12-04T14:10:38;-1.00;99.90
4399;DHT22;2213;49.720;7.296;2023-12-04T14:13:08;-1.10;99.90
4399;DHT22;2213;49.720;7.296;2023-12-04T14:15:36;-1.00;99.90
4399;DHT22;2213;49.720;7.296;2023-12-04T14:18:05;-1.00;99.90
4399;DHT22;2213;49.720;7.296;2023-12-04T14:20:34;-1.00;99.90
4399;DHT22;2213;49.720;7.296;2023-12-04T14:23:03;-0.90;99.90
4399;DHT22;2213;49.720;7.296;2023-12-04T14:25:32;-1.00;99.90
4399;DHT22;2213;49.720;7.296;2023-12-04T14:28:00;-0.90;99.90
4399;DHT22;2213;49.720;7.296;2023-12-04T14:30:30;-0.90;99.90
4399;DHT22;2213;49.720;7.296;2023-12-04T14:32:59;-0.80;99.90
4399;DHT22;2213;49.720;7.296;2023-12-04T14:35:28;-0.80;99.90
4399;DHT22;2213;49.720;7.296;2023-12-04T14:37:56;-0.80;99.90
4399;DHT22;2213;49.720;7.296;2023-12-04T14:40:25;-0.90;99.90
4399;DHT22;2213;49.720;7.296;2023-12-04T14:42:53;-0.90;99.90
4399;DHT22;2213;49.720;7.296;2023-12-04T14:45:23;-0.80;99.90
4399;DHT22;2213;49.720;7.296;2023-12-04T14:47:53;-0.80;99.90
4399;DHT22;2213;49.720;7.296;2023-12-04T14:50:24;-0.70;99.90
4399;DHT22;2213;49.720;7.296;2023-12-04T14:52:52;-0.80;99.90
4399;DHT22;2213;49.720;7.296;2023-12-04T14:55:23;-0.90;99.90
4399;DHT22;2213;49.720;7.296;2023-12-04T14:58:05;-0.90;99.90
4399;DHT22;2213;49.720;7.296;2023-12-04T15:01:14;-0.70;99.90
4399;DHT22;2213;49.720;7.296;2023-12-04T15:04:00;-0.80;99.90
4399;DHT22;2213;49.720;7.296;2023-12-04T15:06:42;-0.80;99.90
4399;DHT22;2213;49.720;7.296;2023-12-04T15:09:39;-0.80;99.90
4399;DHT22;2213;49.720;7.296;2023-12-04T15:12:27;-0.70;99.90
4399;DHT22;2213;49.720;7.296;2023-12-04T15:15:09;-0.80;99.90
4399;DHT22;2213;49.720;7.296;2023-12-04T15:17:43;-0.80;99.90
4399;DHT22;2213;49.720;7.296;2023-12-04T15:20:18;-0.80;99.90
4399;DHT22;2213;49.720;7.296;2023-12-04T15:22:59;-0.90;99.90
4399;DHT22;2213;49.720;7.296;2023-12-04T15:25:28;-0.80;99.90
4399;DHT22;2213;49.720;7.296;2023-12-04T15:27:55;-0.80;99.90
4399;DHT22;2213;49.720;7.296;2023-12-04T15:30:24;-0.80;99.90
4399;DHT22;2213;49.720;7.296;2023-12-04T15:32:53;-0.80;99.90
4399;DHT22;2213;49.720;7.296;2023-12-04T15:35:22;-0.80;99.90
4399;DHT22;2213;49.720;7.296;2023-12-04T15:37:50;-0.80;99.90
4399;DHT22;2213;49.720;7.296;2023-12-04T15:40:18;-0.80;99.90
4399;DHT22;2213;49.720;7.296;2023-12-04T15:42:46;-0.90;99.90
4399;DHT22;2213;49.720;7.296;2023-12-04T15:45:15;-0.80;99.90
4399;DHT22;2213;49.720;7.296;2023-12-04T15:47:42;-0.80;99.90
4399;DHT22;2213;49.720;7.296;2023-12-04T15:50:13;-0.70;99.90
4399;DHT22;2213;49.720;7.296;2023-12-04T15:52:40;-0.80;99.90
4399;DHT22;2213;49.720;7.296;2023-12-04T15:55:10;-0.80;99.90
4399;DHT22;2213;49.720;7.296;2023-12-04T15:57:38;-0.70;99.90
4399;DHT22;2213;49.720;7.296;2023-12-04T16:00:07;-0.70;99.90
4399;DHT22;2213;49.720;7.296;2023-12-04T16:02:40;-0.80;99.90
4399;DHT22;2213;49.720;7.296;2023-12-04T16:05:09;-0.80;99.90
4399;DHT22;2213;49.720;7.296;2023-12-04T16:07:40;-0.70;99.90
4399;DHT22;2213;49.720;7.296;2023-12-04T16:10:09;-0.80;99.90
4399;DHT22;2213;49.720;7.296;2023-12-04T16:12:40;-0.70;99.90
4399;DHT22;2213;49.720;7.296;2023-12-04T16:15:09;-0.50;99.90
4399;DHT22;2213;49.720;7.296;2023-12-04T16:17:39;-0.50;99.90
4399;DHT22;2213;49.720;7.296;2023-12-04T16:20:08;-0.50;99.90
4399;DHT22;2213;49.720;7.296;2023-12-04T16:22:40;-0.60;99.90